Time;durP1;ratioP1;P1;durP2;ratioP2;P2;SDS_P1;SDS_P2;PMS_P1;PMS_P2;Temp;Humidity;BMP_temperature;BMP_pressure;BME280_temperature;BME280_humidity;BME280_pressure;Samples;Min_cycle;Max_cycle;Signal;HPM_P1;HPM_P2
2021/12/05 00:18:37;;;;;;;16.45;7.53;;;;;;;-4.85;100.00;99187.47;4898973;29;20521;-68
2021/12/05 00:23:37;;;;;;;15.07;6.25;;;;;;;-4.80;100.00;99190.75;4897544;29;20105;-68
2021/12/05 00:26:05;;;;;;;19.17;8.13;;;;;;;-4.74;100.00;99193.13;4896156;29;20060;-67
2021/12/05 00:47:35;;;;;;;20.23;9.02;;;;;;;-4.81;100.00;99207.50;4867831;29;20467;-68
2021/12/05 01:00:48;;;;;;;18.85;7.80;;;;;;;-4.83;100.00;99172.44;4910272;29;20064;-66
2021/12/05 01:06:27;;;;;;;18.92;7.35;;;;;;;-4.63;100.00;99175.06;4906970;29;20135;-66
2021/12/05 01:11:22;;;;;;;25.90;9.73;;;;;;;-4.71;100.00;99171.91;4880107;29;20048;-66
2021/12/05 01:16:36;;;;;;;26.65;12.10;;;;;;;-4.67;100.00;99181.41;4905136;29;20052;-66
2021/12/05 01:19:07;;;;;;;26.63;10.00;;;;;;;-4.65;100.00;99182.16;4913922;29;20514;-66
2021/12/05 01:21:35;;;;;;;24.33;9.05;;;;;;;-4.71;100.00;99156.09;4914227;29;20190;-68
2021/12/05 01:32:20;;;;;;;24.58;9.52;;;;;;;-4.50;100.00;99171.88;4915749;29;20120;-68
2021/12/05 01:34:57;;;;;;;25.92;11.50;;;;;;;-4.61;100.00;99162.69;4915741;29;20146;-68
2021/12/05 01:37:40;;;;;;;24.17;8.95;;;;;;;-4.46;100.00;99176.97;4900918;29;20498;-68
2021/12/05 01:53:17;;;;;;;28.92;11.90;;;;;;;-4.46;100.00;99165.53;4915646;29;20144;-69
2021/12/05 02:01:22;;;;;;;24.67;10.23;;;;;;;-4.30;100.00;99185.03;4895787;29;20068;-67
2021/12/05 02:41:38;;;;;;;36.38;18.23;;;;;;;-4.22;100.00;99179.38;4896852;29;20146;-67
2021/12/05 02:44:13;;;;;;;39.17;14.98;;;;;;;-4.21;100.00;99181.09;4893052;29;20380;-66
2021/12/05 02:46:42;;;;;;;39.88;17.73;;;;;;;-4.25;100.00;99175.09;4875483;29;20088;-67
2021/12/05 02:49:14;;;;;;;41.42;19.15;;;;;;;-4.24;100.00;99176.84;4892037;29;20069;-68
2021/12/05 02:51:41;;;;;;;37.42;18.15;;;;;;;-4.24;100.00;99176.84;4861380;29;20045;-69
2021/12/05 02:54:14;;;;;;;36.65;15.88;;;;;;;-4.23;100.00;99178.53;4877726;29;20068;-68
2021/12/05 02:56:47;;;;;;;40.70;19.63;;;;;;;-4.24;100.00;99181.22;4891632;29;20061;-68
2021/12/05 02:59:23;;;;;;;39.35;18.67;;;;;;;-4.23;100.00;99178.53;4876041;29;20081;-67
2021/12/05 03:01:59;;;;;;;38.08;15.65;;;;;;;-4.39;100.00;99148.50;4876371;29;20109;-69
2021/12/05 03:04:30;;;;;;;40.67;17.13;;;;;;;-4.30;100.00;99150.72;4880469;29;20049;-67
2021/12/05 03:06:56;;;;;;;;;;;;;;;-4.09;100.00;99174.41;4878192;29;20069;-65
2021/12/05 03:09:23;;;;;;;35.03;14.25;;;;;;;-4.12;100.00;99170.97;4891828;29;19972;-67
2021/12/05 03:11:53;;;;;;;36.13;15.25;;;;;;;-4.21;100.00;99158.19;4876342;29;20148;-68
2021/12/05 03:14:20;;;;;;;38.72;16.83;;;;;;;-4.07;100.00;99167.25;4879291;29;20088;-66
2021/12/05 03:16:46;;;;;;;38.97;17.05;;;;;;;-4.15;100.00;99168.47;4895639;29;20057;-69
2021/12/05 03:19:13;;;;;;;42.40;16.05;;;;;;;-4.11;100.00;99177.09;4893975;29;20514;-68
2021/12/05 03:21:41;;;;;;;41.60;17.60;;;;;;;-4.12;100.00;99176.25;4895819;29;20049;-67
2021/12/05 03:24:08;;;;;;;34.05;14.75;;;;;;;-4.07;100.00;99164.63;4893284;29;20053;-67
2021/12/05 03:26:37;;;;;;;32.78;15.13;;;;;;;-4.09;100.00;99163.84;4894132;29;20064;-68
2021/12/05 03:29:06;;;;;;;38.15;17.30;;;;;;;-4.08;100.00;99176.13;4893820;29;20071;-68
2021/12/05 03:31:33;;;;;;;35.75;18.13;;;;;;;-4.14;100.00;99178.09;4894075;29;20084;-67
2021/12/05 03:34:01;;;;;;;39.42;18.00;;;;;;;-4.15;100.00;99175.53;4900552;29;20430;-67
2021/12/05 03:36:29;;;;;;;35.72;16.15;;;;;;;-4.15;100.00;99180.81;4903744;29;20100;-67
2021/12/05 03:38:56;;;;;;;41.65;18.48;;;;;;;-4.17;100.00;99180.91;4912120;29;20503;-68
2021/12/05 03:41:23;;;;;;;42.65;17.83;;;;;;;-4.15;100.00;99172.91;4894695;29;20060;-66
2021/12/05 03:43:55;;;;;;;37.15;16.17;;;;;;;-4.18;100.00;99171.25;4894887;29;20199;-67
2021/12/05 03:46:21;;;;;;;39.22;16.40;;;;;;;-4.09;100.00;99190.25;4897687;29;20052;-69
2021/12/05 03:48:51;;;;;;;37.67;15.77;;;;;;;-4.07;100.00;99189.22;4882051;29;20143;-67
2021/12/05 03:51:20;;;;;;;38.20;16.65;;;;;;;-4.26;100.00;99157.56;4898719;29;20083;-67
2021/12/05 03:53:49;;;;;;;34.28;14.75;;;;;;;-4.08;100.00;99192.81;4897746;29;20049;-67
2021/12/05 03:56:16;;;;;;;42.90;17.10;;;;;;;-4.34;100.00;99164.97;4900920;29;20111;-68
2021/12/05 03:58:42;;;;;;;37.20;15.10;;;;;;;-4.04;100.00;99193.53;4915417;29;20064;-68
2021/12/05 04:01:11;;;;;;;36.13;15.30;;;;;;;-4.02;100.00;99202.22;4915293;29;20522;-68
2021/12/05 04:03:42;;;;;;;35.92;16.35;;;;;;;-4.03;100.00;99197.88;4884854;29;20139;-68
2021/12/05 04:06:09;;;;;;;38.03;16.95;;;;;;;-4.04;100.00;99198.81;4901387;29;20526;-67
2021/12/05 04:08:35;;;;;;;37.75;17.25;;;;;;;-4.02;100.00;99202.22;4896519;29;20061;-67
2021/12/05 04:11:06;;;;;;;39.95;17.50;;;;;;;-4.04;100.00;99206.72;4896442;29;20112;-67
2021/12/05 04:13:33;;;;;;;32.42;13.20;;;;;;;-4.00;100.00;99195.09;4896602;29;20057;-67
2021/12/05 04:16:02;;;;;;;33.10;14.73;;;;;;;-3.94;100.00;99205.38;4907906;29;20056;-68
2021/12/05 04:18:28;;;;;;;35.15;15.43;;;;;;;-3.91;100.00;99205.25;4881013;29;20085;-68
2021/12/05 04:20:57;;;;;;;37.20;16.85;;;;;;;-3.90;100.00;99206.94;4881094;29;20510;-67
2021/12/05 04:23:25;;;;;;;34.05;15.18;;;;;;;-3.93;100.00;99197.38;4880376;29;20052;-67
2021/12/05 04:25:52;;;;;;;39.90;15.95;;;;;;;-3.91;100.00;99207.88;4911078;29;20100;-68
2021/12/05 04:28:21;;;;;;;34.22;15.50;;;;;;;-3.97;100.00;99194.94;4912000;29;20505;-68
2021/12/05 04:30:48;;;;;;;36.80;15.68;;;;;;;-3.98;100.00;99187.97;4896112;29;20060;-67
2021/12/05 04:33:14;;;;;;;32.22;14.52;;;;;;;-3.86;100.00;99208.50;4880651;29;20061;-67
2021/12/05 04:35:41;;;;;;;38.28;15.15;;;;;;;-3.84;100.00;99208.41;4891150;29;20068;-69
2021/12/05 04:38:07;;;;;;;38.13;14.95;;;;;;;-3.87;100.00;99212.09;4878480;29;20069;-68
2021/12/05 04:40:33;;;;;;;36.03;16.02;;;;;;;-3.80;100.00;99215.25;4876892;29;20148;-68
2021/12/05 04:43:03;;;;;;;44.85;15.57;;;;;;;-3.77;100.00;99229.19;4862106;29;20061;-66
2021/12/05 04:45:30;;;;;;;33.45;13.10;;;;;;;-3.77;100.00;99229.19;4879102;29;20059;-69
2021/12/05 04:48:02;;;;;;;33.88;13.63;;;;;;;-3.75;100.00;99221.22;4896145;29;20108;-68
2021/12/05 04:50:30;;;;;;;43.05;15.10;;;;;;;-3.74;100.00;99223.75;4895547;29;20494;-68
2021/12/05 04:52:56;;;;;;;32.58;12.85;;;;;;;-3.71;100.00;99228.06;4895267;29;20100;-68
2021/12/05 04:55:24;;;;;;;35.22;13.38;;;;;;;-3.71;100.00;99228.06;4895216;29;20069;-68
2021/12/05 04:57:52;;;;;;;35.90;14.65;;;;;;;-3.73;100.00;99222.84;4895764;29;20076;-67
2021/12/05 05:00:34;;;;;;;32.15;13.85;;;;;;;-3.85;100.00;99202.28;4895533;29;20079;-66
2021/12/05 05:03:00;;;;;;;32.08;14.20;;;;;;;-3.69;100.00;99227.06;4897068;29;20055;-69
2021/12/05 05:05:28;;;;;;;34.65;14.25;;;;;;;-3.62;100.00;99230.25;4910497;29;20068;-69
2021/12/05 05:07:54;;;;;;;31.25;12.20;;;;;;;-3.60;100.00;99235.47;4880060;29;20052;-68
2021/12/05 05:10:27;;;;;;;33.10;13.85;;;;;;;-3.58;100.00;99244.16;4911229;29;20511;-67
2021/12/05 05:12:53;;;;;;;30.70;14.18;;;;;;;-3.68;100.00;99223.47;4896838;29;20143;-67
2021/12/05 05:15:22;;;;;;;27.73;11.73;;;;;;;-3.67;100.00;99216.41;4895179;29;20135;-69
2021/12/05 05:17:50;;;;;;;27.92;11.25;;;;;;;-3.51;100.00;99245.59;4895414;29;20151;-68
2021/12/05 05:20:33;;;;;;;28.25;12.95;;;;;;;-3.57;100.00;99235.31;4896577;29;20056;-69
2021/12/05 05:39:15;;;;;;;28.95;12.38;;;;;;;-3.66;100.00;99226.03;4895415;29;20055;-68
2021/12/05 05:45:24;;;;;;;30.65;12.23;;;;;;;-3.43;100.00;99269.88;4897463;29;20093;-69
2021/12/05 05:50:21;;;;;;;28.67;13.60;;;;;;;-3.55;100.00;99257.22;4896890;29;20060;-68
2021/12/05 05:52:47;;;;;;;33.53;14.65;;;;;;;-3.55;100.00;99265.16;4896515;29;20056;-68
2021/12/05 05:55:13;;;;;;;32.15;14.15;;;;;;;-3.50;100.00;99271.94;4894559;29;20091;-70
2021/12/05 05:58:15;;;;;;;32.13;14.95;;;;;;;-3.47;100.00;99276.25;4895917;29;20052;-69
2021/12/05 06:00:38;;;;;;;35.78;12.88;;;;;;;-3.46;100.00;99283.22;4896770;29;20067;-67
2021/12/05 06:03:22;;;;;;;30.13;12.45;;;;;;;-3.44;100.00;99278.72;4895935;29;20430;-70
2021/12/05 06:05:59;;;;;;;32.45;15.27;;;;;;;-3.46;100.00;99280.59;4881774;29;20582;-68
2021/12/05 06:08:28;;;;;;;32.65;14.25;;;;;;;-3.48;100.00;99271.88;4894512;29;20064;-70
2021/12/05 06:10:57;;;;;;;32.75;14.10;;;;;;;-3.55;100.00;99259.88;4896979;29;20074;-68
2021/12/05 06:13:24;;;;;;;30.73;13.63;;;;;;;-3.47;100.00;99281.53;4894718;29;20491;-68
2021/12/05 06:15:51;;;;;;;32.58;13.60;;;;;;;-3.45;100.00;99277.84;4907654;29;20051;-69
2021/12/05 06:18:17;;;;;;;30.90;13.18;;;;;;;-3.44;100.00;99281.34;4914844;29;20082;-68
2021/12/05 06:20:43;;;;;;;31.25;14.50;;;;;;;-3.55;100.00;99273.09;4929337;29;20052;-68
2021/12/05 06:23:11;;;;;;;33.17;13.50;;;;;;;-3.48;100.00;99277.16;4885617;29;20051;-68
2021/12/05 06:25:39;;;;;;;31.10;13.85;;;;;;;-3.49;100.00;99278.09;4915440;29;20518;-69
2021/12/05 06:28:11;;;;;;;31.52;14.32;;;;;;;-3.42;100.00;99292.72;4913008;29;20147;-68
2021/12/05 06:30:48;;;;;;;34.88;14.23;;;;;;;-3.45;100.00;99283.16;4898618;29;20122;-68
2021/12/05 06:46:40;;;;;;;37.08;13.88;;;;;;;-3.41;100.00;99318.22;4896061;29;20421;-70
2021/12/05 06:49:06;;;;;;;36.03;15.45;;;;;;;-3.55;100.00;99296.84;4897347;29;20053;-68
2021/12/05 06:51:32;;;;;;;30.13;13.93;;;;;;;-3.43;100.00;99317.44;4893958;29;20124;-68
2021/12/05 06:53:58;;;;;;;33.63;15.57;;;;;;;-3.45;100.00;99308.72;4844690;29;20049;-67
2021/12/05 06:56:24;;;;;;;34.38;13.95;;;;;;;-3.40;100.00;99314.63;4878006;29;20071;-68
2021/12/05 06:58:51;;;;;;;35.60;13.73;;;;;;;-3.39;100.00;99308.44;4867681;29;20053;-67
2021/12/05 07:01:17;;;;;;;34.58;14.98;;;;;;;-3.34;100.00;99310.84;4875939;29;20087;-67
2021/12/05 07:03:46;;;;;;;32.30;14.57;;;;;;;-3.43;100.00;99306.88;4875514;29;20064;-67
2021/12/05 07:06:21;;;;;;;33.55;14.02;;;;;;;-3.29;100.00;99330.88;4875894;29;20403;-67
2021/12/05 07:08:47;;;;;;;34.35;14.65;;;;;;;-3.54;100.00;99295.94;4876874;29;20455;-67
2021/12/05 07:11:24;;;;;;;33.33;14.85;;;;;;;-3.53;100.00;99310.88;4883037;29;20060;-67
2021/12/05 07:16:32;;;;;;;38.45;14.30;;;;;;;-3.25;100.00;99332.44;4895800;29;20088;-68
2021/12/05 07:19:19;;;;;;;36.60;12.88;;;;;;;-3.19;100.00;99334.75;4894431;29;22372;-68
2021/12/05 07:21:53;;;;;;;34.83;12.98;;;;;;;-3.15;100.00;99338.97;4912952;29;20060;-67
2021/12/05 07:24:32;;;;;;;30.55;13.50;;;;;;;-3.12;100.00;99331.84;4898337;29;20060;-68
2021/12/05 07:40:35;;;;;;;30.45;12.75;;;;;;;-3.01;100.00;99337.47;4915153;29;20068;-72
2021/12/05 07:43:06;;;;;;;32.83;12.18;;;;;;;-2.93;100.00;99353.81;4901953;29;20502;-68
2021/12/05 07:45:40;;;;;;;32.67;10.43;;;;;;;-2.74;100.00;99359.09;4920517;29;20060;-67
2021/12/05 07:48:13;;;;;;;27.77;14.23;;;;;;;-2.85;100.00;99353.44;4908918;29;20044;-68
2021/12/05 07:50:49;;;;;;;27.00;12.43;;;;;;;-2.94;100.00;99320.38;4913429;29;20062;-70
2021/12/05 07:53:31;;;;;;;29.55;11.52;;;;;;;-2.69;100.00;99349.13;4909305;29;20058;-69
2021/12/05 07:56:04;;;;;;;25.15;12.70;;;;;;;-2.76;100.00;99351.22;4888856;29;20055;-69
2021/12/05 07:58:53;;;;;;;29.50;12.93;;;;;;;-2.84;100.00;99337.50;4903240;29;20056;-71
2021/12/05 08:15:13;;;;;;;28.00;11.73;;;;;;;-1.82;98.19;99347.31;4891031;29;20052;-71
2021/12/05 08:17:40;;;;;;;31.30;13.32;;;;;;;-1.88;97.91;99344.97;4910203;29;20196;-69
2021/12/05 08:20:09;;;;;;;26.75;12.27;;;;;;;-1.66;96.49;99335.91;4895939;29;20051;-69
2021/12/05 08:22:35;;;;;;;27.70;12.85;;;;;;;-1.69;96.88;99347.50;4910205;29;20399;-69
2021/12/05 08:25:09;;;;;;;26.27;13.23;;;;;;;-1.89;97.54;99351.22;4895161;29;20075;-71
2021/12/05 08:27:35;;;;;;;27.80;12.63;;;;;;;-2.15;98.24;99318.16;4913528;29;20134;-69
2021/12/05 08:30:09;;;;;;;30.73;12.38;;;;;;;-1.96;98.28;99352.47;4900722;29;20809;-74
2021/12/05 08:44:26;;;;;;;26.95;12.93;;;;;;;-2.36;100.00;99343.09;4901233;29;20082;-67
2021/12/05 08:46:25;;;;;;;27.17;12.65;;;;;;;-2.25;100.00;99351.34;4920638;29;20067;-71
2021/12/05 09:22:48;;;;;;;25.33;11.65;;;;;;;-2.07;100.00;99355.69;4909092;29;20115;-66
2021/12/05 09:30:36;;;;;;;27.23;9.80;;;;;;;-1.61;97.82;99363.00;4907620;29;20063;-66
2021/12/05 09:38:51;;;;;;;25.42;12.25;;;;;;;-1.62;97.60;99377.19;4915956;29;20509;-70
2021/12/05 10:06:45;;;;;;;26.98;12.32;;;;;;;-1.97;100.00;99367.53;4900409;29;20124;-68
2021/12/05 10:06:46;;;;;;;22.60;9.85;;;;;;;-1.94;99.87;99366.47;4910083;29;20047;-68
2021/12/05 10:09:42;;;;;;;28.80;12.85;;;;;;;-2.00;100.00;99361.53;4923452;29;20052;-67
2021/12/05 10:38:09;;;;;;;23.63;11.23;;;;;;;-2.05;100.00;99369.72;4879909;29;20163;-71
2021/12/05 10:40:45;;;;;;;25.60;11.00;;;;;;;-1.99;100.00;99379.13;4886262;29;20056;-66
2021/12/05 10:43:17;;;;;;;26.15;10.57;;;;;;;-1.99;100.00;99376.47;4894714;29;20070;-66
2021/12/05 10:45:52;;;;;;;23.13;10.18;;;;;;;-1.93;100.00;99378.81;4874469;29;20127;-68
2021/12/05 10:48:27;;;;;;;25.38;11.40;;;;;;;-1.90;100.00;99383.06;4911573;29;20080;-72
2021/12/05 10:50:58;;;;;;;24.88;11.50;;;;;;;-1.97;100.00;99383.41;4895579;29;20138;-72
2021/12/05 10:53:32;;;;;;;25.63;10.88;;;;;;;-1.84;100.00;99378.31;4877068;29;20053;-70
2021/12/05 10:56:00;;;;;;;23.70;10.75;;;;;;;-1.80;100.00;99385.16;4905379;29;20065;-70
2021/12/05 10:58:37;;;;;;;23.58;11.55;;;;;;;-1.85;100.00;99379.25;4915924;29;20446;-71
2021/12/05 11:01:15;;;;;;;25.13;10.07;;;;;;;-1.75;100.00;99388.44;4887580;29;20083;-70
2021/12/05 11:03:41;;;;;;;25.55;12.35;;;;;;;-1.86;100.00;99380.22;4902703;29;20064;-70
2021/12/05 11:06:22;;;;;;;23.52;9.88;;;;;;;-1.83;100.00;99374.75;4933379;29;20356;-72
2021/12/05 11:08:54;;;;;;;24.17;11.15;;;;;;;-1.72;100.00;99388.28;4905531;29;20060;-71
2021/12/05 11:11:20;;;;;;;25.35;11.48;;;;;;;-1.68;100.00;99382.81;4937272;29;20056;-71
2021/12/05 11:13:46;;;;;;;25.88;11.50;;;;;;;-1.64;100.00;99392.34;4920227;29;20056;-70
2021/12/05 11:16:37;;;;;;;27.50;11.35;;;;;;;-1.77;100.00;99394.75;4883221;29;20063;-71
2021/12/05 11:19:25;;;;;;;28.42;10.73;;;;;;;-1.75;100.00;99383.16;4886838;29;20060;-70
2021/12/05 11:22:02;;;;;;;24.77;12.43;;;;;;;-1.75;100.00;99399.03;4871428;29;20131;-71
2021/12/05 11:24:38;;;;;;;28.23;11.55;;;;;;;-1.83;100.00;99401.25;4905880;29;20052;-71
2021/12/05 11:27:04;;;;;;;25.15;11.15;;;;;;;-1.81;100.00;99409.94;4917688;29;20100;-71
2021/12/05 11:29:46;;;;;;;25.88;11.85;;;;;;;-1.93;100.00;99396.50;4905935;29;20064;-70
2021/12/05 11:32:27;;;;;;;27.13;10.98;;;;;;;-2.10;100.00;99382.31;4920672;29;20217;-71
2021/12/05 11:34:53;;;;;;;25.48;12.27;;;;;;;-2.01;100.00;99408.34;4920742;29;20184;-71
2021/12/05 11:37:19;;;;;;;25.02;12.50;;;;;;;-2.14;100.00;99391.34;4868713;29;20060;-70
2021/12/05 11:39:46;;;;;;;27.77;11.98;;;;;;;-2.09;100.00;99414.94;4900807;29;20184;-71
2021/12/05 11:42:17;;;;;;;30.38;12.52;;;;;;;-2.07;100.00;99410.44;4917756;29;20081;-72
2021/12/05 11:44:46;;;;;;;24.92;10.63;;;;;;;-2.07;100.00;99415.75;4900511;29;20064;-70
2021/12/05 11:47:14;;;;;;;31.20;12.38;;;;;;;-2.04;100.00;99415.59;4903012;29;20150;-71
2021/12/05 11:49:40;;;;;;;28.75;13.32;;;;;;;-2.06;100.00;99414.78;4923104;29;20063;-70
2021/12/05 11:52:08;;;;;;;22.05;10.70;;;;;;;-2.06;100.00;99399.75;4904241;29;20067;-70
2021/12/05 11:54:38;;;;;;;25.05;11.40;;;;;;;-2.04;100.00;99410.28;4920367;29;20194;-70
2021/12/05 11:57:14;;;;;;;25.40;9.90;;;;;;;-1.95;100.00;99412.47;4923271;29;20056;-71
2021/12/05 11:59:46;;;;;;;23.77;11.10;;;;;;;-2.01;100.00;99412.75;4893889;29;20059;-71
2021/12/05 12:02:21;;;;;;;24.35;11.55;;;;;;;-2.08;100.00;99416.69;4905390;29;20059;-72
2021/12/05 12:05:02;;;;;;;23.75;12.10;;;;;;;-2.13;100.00;99423.97;4889620;29;20056;-70
2021/12/05 12:07:37;;;;;;;26.13;11.75;;;;;;;-2.17;100.00;99417.97;4903251;29;20068;-71
2021/12/05 12:10:26;;;;;;;27.15;10.98;;;;;;;-2.16;100.00;99421.47;4906033;29;20088;-70
2021/12/05 12:13:10;;;;;;;27.33;11.85;;;;;;;-2.14;100.00;99416.97;4901242;29;20056;-71
2021/12/05 12:15:37;;;;;;;25.75;11.80;;;;;;;-2.19;100.00;99426.03;4899826;29;20048;-71
2021/12/05 12:18:15;;;;;;;24.65;12.95;;;;;;;-2.35;100.00;99389.78;4931652;29;20479;-70
2021/12/05 12:20:45;;;;;;;29.90;12.98;;;;;;;-2.44;100.00;99367.28;4904909;29;20194;-71
2021/12/05 12:23:12;;;;;;;32.10;11.75;;;;;;;-2.20;100.00;99424.28;4919625;29;20078;-72
2021/12/05 12:25:39;;;;;;;29.55;12.80;;;;;;;-2.36;100.00;99396.03;4934387;29;20131;-71
2021/12/05 12:28:07;;;;;;;25.50;11.80;;;;;;;-2.23;100.00;99424.47;4888251;29;20502;-71
2021/12/05 12:30:38;;;;;;;32.42;12.80;;;;;;;-2.33;100.00;99407.31;4905306;29;20056;-71
2021/12/05 12:33:20;;;;;;;29.45;13.90;;;;;;;-2.30;100.00;99422.19;4888752;29;20573;-71
2021/12/05 12:35:48;;;;;;;30.20;13.07;;;;;;;-2.29;100.00;99430.06;4904553;29;20058;-71
2021/12/05 12:38:22;;;;;;;34.40;12.82;;;;;;;-2.27;100.00;99444.06;4901566;29;20056;-70
2021/12/05 12:40:53;;;;;;;33.70;13.48;;;;;;;-2.27;100.00;99441.41;4919463;29;20171;-71
2021/12/05 12:43:53;;;;;;;31.52;14.90;;;;;;;-2.35;100.00;99419.75;4902193;29;20052;-71
2021/12/05 12:46:44;;;;;;;33.85;15.70;;;;;;;-2.34;100.00;99429.44;4918484;29;20052;-71
2021/12/05 12:49:15;;;;;;;37.13;14.68;;;;;;;-2.36;100.00;99426.00;4934521;29;20052;-72
2021/12/05 12:51:45;;;;;;;32.88;14.63;;;;;;;-2.35;100.00;99440.94;4885742;29;20067;-70
2021/12/05 12:54:40;;;;;;;36.70;15.00;;;;;;;-2.40;100.00;99432.38;4918701;29;20510;-71
2021/12/05 12:57:22;;;;;;;34.15;14.85;;;;;;;-2.40;100.00;99435.00;4917423;29;20056;-70
2021/12/05 12:59:55;;;;;;;32.90;14.45;;;;;;;-2.63;100.00;99403.50;4919149;29;20052;-71
2021/12/05 13:02:56;;;;;;;33.33;15.60;;;;;;;-2.43;100.00;99433.38;4902026;29;20068;-71
2021/12/05 13:11:00;;;;;;;37.88;17.05;;;;;;;-2.47;100.00;99444.19;4900679;29;20056;-68
2021/12/05 13:13:28;;;;;;;38.20;17.25;;;;;;;-2.45;100.00;99451.13;4883081;29;20505;-69
2021/12/05 13:16:02;;;;;;;40.15;15.05;;;;;;;-2.43;100.00;99451.03;4904813;29;20142;-65
2021/12/05 13:18:34;;;;;;;33.88;17.00;;;;;;;-2.50;100.00;99452.28;4927089;29;20466;-67
2021/12/05 13:21:16;;;;;;;33.15;15.45;;;;;;;-2.49;100.00;99459.28;4899466;29;20090;-69
2021/12/05 13:23:46;;;;;;;40.70;17.80;;;;;;;-2.63;100.00;99443.19;4900706;29;20052;-69
2021/12/05 13:26:24;;;;;;;38.35;17.00;;;;;;;-2.53;100.00;99463.00;4918204;29;20060;-70
2021/12/05 13:28:52;;;;;;;37.83;16.15;;;;;;;-2.58;100.00;99450.00;4916853;29;20995;-70
2021/12/05 13:31:27;;;;;;;36.00;15.30;;;;;;;-2.49;100.00;99469.84;4929252;29;20044;-70
2021/12/05 13:34:24;;;;;;;35.20;15.65;;;;;;;-2.48;100.00;99472.44;4929331;29;20055;-72
2021/12/05 13:37:06;;;;;;;36.45;16.15;;;;;;;-2.48;100.00;99477.75;4929208;29;20532;-70
2021/12/05 13:39:52;;;;;;;41.30;18.45;;;;;;;-2.46;100.00;99472.34;4927296;29;20064;-69
2021/12/05 13:42:42;;;;;;;46.58;16.52;;;;;;;-2.57;100.00;99459.63;4876964;29;20139;-68
2021/12/05 13:45:14;;;;;;;38.38;17.75;;;;;;;-2.48;100.00;99471.59;4925882;29;20063;-73
2021/12/05 13:48:05;;;;;;;30.67;13.73;;;;;;;-2.52;100.00;99467.38;4910617;29;20103;-72
2021/12/05 13:53:12;;;;;;;34.85;17.88;;;;;;;-2.60;100.00;99469.50;4883944;29;20079;-71
2021/12/05 13:55:54;;;;;;;35.67;16.85;;;;;;;-2.62;100.00;99468.75;4908154;29;20500;-76
2021/12/05 13:58:35;;;;;;;36.80;17.85;;;;;;;-2.69;100.00;99478.75;4897033;29;20048;-72
2021/12/05 14:01:03;;;;;;;35.70;15.68;;;;;;;-2.83;100.00;99442.38;4903399;29;20591;-73
2021/12/05 14:03:44;;;;;;;32.60;15.02;;;;;;;-2.71;100.00;99464.72;5097837;23;20463;-72
2021/12/05 14:06:40;;;;;;;32.58;14.35;;;;;;;-2.54;100.00;99487.75;4881296;29;20052;-74
2021/12/05 14:09:08;;;;;;;35.88;15.07;;;;;;;-2.53;100.00;99492.09;4883167;29;20064;-75
2021/12/05 14:11:35;;;;;;;30.00;13.13;;;;;;;-2.52;100.00;99500.00;4894746;29;20082;-75
2021/12/05 14:14:03;;;;;;;30.15;15.23;;;;;;;-2.54;100.00;99498.34;4925083;29;20044;-75
2021/12/05 14:16:34;;;;;;;30.77;15.63;;;;;;;-2.55;100.00;99491.34;4910850;29;20057;-70
2021/12/05 14:19:01;;;;;;;34.50;14.93;;;;;;;-2.73;100.00;99472.75;4880362;29;20147;-76
2021/12/05 14:21:29;;;;;;;32.95;14.60;;;;;;;-2.61;100.00;99486.34;4899775;29;20109;-70
2021/12/05 14:24:00;;;;;;;34.35;16.00;;;;;;;-2.59;100.00;99495.91;4918547;29;20060;-76
2021/12/05 14:26:29;;;;;;;28.80;13.68;;;;;;;-2.64;100.00;99487.31;4902187;29;20459;-75
2021/12/05 14:28:59;;;;;;;29.63;14.02;;;;;;;-2.62;100.00;99495.22;4914223;29;20056;-72
2021/12/05 14:31:31;;;;;;;24.52;11.50;;;;;;;-2.73;100.00;99471.91;4901910;29;20064;-74
2021/12/05 14:33:57;;;;;;;28.33;12.52;;;;;;;-2.58;100.00;99507.34;4917633;29;20056;-72
2021/12/05 14:36:27;;;;;;;29.17;12.38;;;;;;;-2.88;100.00;99452.31;4870426;29;20052;-65
2021/12/05 14:39:10;;;;;;;;;;;;;;;-2.61;100.00;99508.34;4894572;29;20478;-70
2021/12/05 14:41:39;;;;;;;37.72;14.68;;;;;;;-2.61;100.00;99518.09;4911954;29;19924;-75
2021/12/05 14:44:06;;;;;;;27.00;12.10;;;;;;;-2.75;100.00;99495.75;4890176;29;20044;-74
2021/12/05 14:46:33;;;;;;;25.10;11.93;;;;;;;-2.67;100.00;99519.22;4882604;29;20119;-72
2021/12/05 14:49:03;;;;;;;27.95;12.20;;;;;;;-2.78;100.00;99511.81;4889244;29;20475;-73
2021/12/05 14:51:40;;;;;;;28.52;13.05;;;;;;;-2.71;100.00;99528.22;4909299;29;20066;-74
2021/12/05 14:54:07;;;;;;;26.10;12.18;;;;;;;-2.70;100.00;99536.09;4863104;29;20080;-70
2021/12/05 14:56:36;;;;;;;28.08;13.23;;;;;;;-2.68;100.00;99528.94;4864637;29;20063;-71
2021/12/05 14:59:08;;;;;;;27.40;11.75;;;;;;;-2.89;100.00;99502.63;4885680;29;20151;-70
2021/12/05 15:01:36;;;;;;;29.95;13.60;;;;;;;-2.83;100.00;99529.66;4890953;29;20049;-70
2021/12/05 15:04:04;;;;;;;27.00;12.68;;;;;;;-2.69;100.00;99540.47;4877202;29;20128;-70
2021/12/05 15:06:35;;;;;;;28.63;12.25;;;;;;;-2.79;100.00;99525.09;4884132;29;20199;-70
2021/12/05 15:09:07;;;;;;;25.30;12.82;;;;;;;-2.81;100.00;99522.53;4907576;29;20068;-73
2021/12/05 15:11:33;;;;;;;31.85;12.93;;;;;;;-2.74;100.00;99539.81;4896756;29;20073;-72
2021/12/05 15:14:06;;;;;;;29.27;11.45;;;;;;;-2.74;100.00;99533.69;4899546;29;20053;-73
2021/12/05 15:16:32;;;;;;;25.30;11.82;;;;;;;-2.70;100.00;99541.41;4883776;29;20100;-73
2021/12/05 15:18:59;;;;;;;26.70;12.25;;;;;;;-2.75;100.00;99527.50;4855607;29;20052;-70
2021/12/05 15:21:27;;;;;;;24.20;11.00;;;;;;;-2.67;100.00;99546.56;4882347;29;20056;-70
2021/12/05 15:23:54;;;;;;;23.58;11.32;;;;;;;-2.73;100.00;99528.31;4912268;29;20068;-68
2021/12/05 15:26:20;;;;;;;25.05;11.77;;;;;;;-2.67;100.00;99549.19;4872607;29;20132;-72
2021/12/05 15:28:48;;;;;;;25.50;11.25;;;;;;;-2.69;100.00;99537.81;4877780;29;20053;-70
2021/12/05 15:31:14;;;;;;;25.42;11.48;;;;;;;-2.73;100.00;99530.09;4860939;29;20527;-69
2021/12/05 15:33:40;;;;;;;22.92;11.43;;;;;;;-2.71;100.00;99550.25;4871859;29;20111;-71
2021/12/05 15:36:07;;;;;;;27.05;12.15;;;;;;;-2.71;100.00;99536.16;4887436;29;20147;-67
2021/12/05 15:38:34;;;;;;;24.75;11.05;;;;;;;-2.62;100.00;99548.13;4873958;29;20064;-68
2021/12/05 15:41:05;;;;;;;24.05;11.50;;;;;;;-2.68;100.00;99549.25;4873929;29;20060;-74
2021/12/05 15:43:34;;;;;;;25.40;10.52;;;;;;;-2.72;100.00;99551.19;4897704;29;20196;-72
2021/12/05 15:46:00;;;;;;;23.60;9.63;;;;;;;-2.83;100.00;99523.50;4898154;29;20044;-72
2021/12/05 15:48:35;;;;;;;24.05;10.57;;;;;;;-2.72;100.00;99545.03;4878155;29;20067;-74
2021/12/05 15:51:03;;;;;;;21.48;9.77;;;;;;;-2.65;100.00;99556.19;4891117;29;20080;-68
2021/12/05 15:53:32;;;;;;;23.67;11.32;;;;;;;-2.79;100.00;99541.81;4902852;29;20060;-71
2021/12/05 15:56:01;;;;;;;22.80;11.68;;;;;;;-2.82;100.00;99549.88;4894160;29;20131;-71
2021/12/05 15:58:31;;;;;;;23.95;10.50;;;;;;;-2.91;100.00;99531.78;4881218;29;20075;-70
2021/12/05 16:01:09;;;;;;;24.75;10.90;;;;;;;-2.91;100.00;99526.50;4895849;29;20057;-68
2021/12/05 16:03:48;;;;;;;24.30;10.55;;;;;;;-2.71;100.00;99567.91;4908407;29;20045;-70
2021/12/05 16:06:16;;;;;;;20.92;9.32;;;;;;;-2.72;100.00;99568.84;4882310;29;20063;-71
2021/12/05 16:08:46;;;;;;;21.13;8.85;;;;;;;-2.92;100.00;99530.09;4862286;29;20068;-70
2021/12/05 16:11:14;;;;;;;22.20;10.43;;;;;;;-2.76;100.00;99560.19;4867994;29;20048;-71
2021/12/05 16:13:42;;;;;;;26.17;10.80;;;;;;;-2.75;100.00;99561.91;4896933;29;20048;-70
2021/12/05 16:16:25;;;;;;;24.60;10.95;;;;;;;-2.72;100.00;99568.84;4907250;29;20056;-68
2021/12/05 16:18:55;;;;;;;24.85;11.55;;;;;;;-2.86;100.00;99542.16;4956854;23;20120;-70
2021/12/05 16:21:28;;;;;;;22.83;10.23;;;;;;;-2.72;100.00;99567.06;4921134;29;20079;-70
2021/12/05 16:24:05;;;;;;;24.35;9.63;;;;;;;-2.73;100.00;99578.56;4903356;29;20055;-71
2021/12/05 16:26:32;;;;;;;25.85;11.07;;;;;;;-2.82;100.00;99578.97;4918924;29;20128;-73
2021/12/05 16:29:12;;;;;;;22.35;10.65;;;;;;;-2.78;100.00;99577.03;4900229;29;20146;-74
2021/12/05 16:31:41;;;;;;;25.70;11.75;;;;;;;-2.74;100.00;99590.09;4894036;29;20080;-72
2021/12/05 16:34:12;;;;;;;23.38;10.23;;;;;;;-2.78;100.00;99584.97;4917327;29;20076;-68